Time;durP1;ratioP1;P1;durP2;ratioP2;P2;SDS_P1;SDS_P2;PMS_P1;PMS_P2;Temp;Humidity;BMP_temperature;BMP_pressure;BME280_temperature;BME280_humidity;BME280_pressure;Samples;Min_cycle;Max_cycle;Signal;HPM_P1;HPM_P2
2021/11/05 00:00:40;;;;;;;3.00;2.77;;;6.70;99.90;;;;;;4974688;28;20494;-74
2021/11/05 00:03:07;;;;;;;2.77;2.60;;;6.70;99.90;;;;;;4973903;28;20200;-74
2021/11/05 00:05:33;;;;;;;3.13;2.90;;;6.70;99.90;;;;;;4975701;28;20419;-74
2021/11/05 00:08:03;;;;;;;2.87;2.57;;;6.70;99.90;;;;;;4975304;28;20416;-74
2021/11/05 00:10:28;;;;;;;3.07;2.40;;;6.70;99.90;;;;;;4975609;28;20415;-74
2021/11/05 00:12:54;;;;;;;2.90;2.80;;;6.70;99.90;;;;;;4974988;28;20427;-74
2021/11/05 00:15:19;;;;;;;3.00;2.80;;;6.70;99.90;;;;;;4975317;28;20415;-74
2021/11/05 00:17:45;;;;;;;5.13;2.67;;;6.70;99.90;;;;;;4975363;28;20177;-74
2021/11/05 00:20:12;;;;;;;2.97;2.77;;;6.70;99.90;;;;;;4975123;28;20223;-74
2021/11/05 00:22:38;;;;;;;3.50;3.20;;;6.70;99.90;;;;;;4974901;28;20225;-74
2021/11/05 00:25:08;;;;;;;3.03;2.83;;;6.60;99.90;;;;;;4975243;28;20424;-74
2021/11/05 00:27:38;;;;;;;3.40;3.10;;;6.60;99.90;;;;;;4975365;28;20400;-74
2021/11/05 00:30:07;;;;;;;3.90;3.30;;;6.60;99.90;;;;;;4975300;28;20425;-74
2021/11/05 00:32:32;;;;;;;2.90;2.70;;;6.60;99.90;;;;;;4974672;28;20434;-74
2021/11/05 00:34:58;;;;;;;3.23;2.73;;;6.60;99.90;;;;;;4973929;28;20520;-74
2021/11/05 00:37:23;;;;;;;4.67;3.20;;;6.60;99.90;;;;;;4974483;28;20211;-74
2021/11/05 00:39:49;;;;;;;3.37;2.90;;;6.60;99.90;;;;;;4974135;28;20324;-74
2021/11/05 00:42:14;;;;;;;4.63;2.40;;;6.60;99.90;;;;;;4974402;28;20282;-74
2021/11/05 00:44:40;;;;;;;3.30;3.00;;;6.60;99.90;;;;;;4974909;28;20227;-74
2021/11/05 00:47:05;;;;;;;3.70;3.20;;;6.60;99.90;;;;;;4974686;28;20223;-74
2021/11/05 00:49:31;;;;;;;3.20;2.93;;;6.60;99.90;;;;;;4974780;28;20184;-74
2021/11/05 00:51:57;;;;;;;3.27;3.00;;;6.60;99.90;;;;;;4974621;28;20600;-73
2021/11/05 00:54:22;;;;;;;4.80;3.27;;;6.60;99.90;;;;;;4973264;28;20553;-74
2021/11/05 00:56:48;;;;;;;4.10;2.47;;;6.60;99.90;;;;;;4974712;28;20646;-75
2021/11/05 00:59:13;;;;;;;2.73;2.53;;;6.50;99.90;;;;;;4974406;28;20172;-74
2021/11/05 05:31:17;;;;;;;2.43;2.10;;;6.20;99.90;;;;;;5707862;23;20514;-70
2021/11/05 05:33:43;;;;;;;2.97;2.70;;;6.20;99.90;;;;;;4950861;29;20420;-72
2021/11/05 05:36:09;;;;;;;3.33;3.03;;;6.20;99.90;;;;;;4953818;28;20196;-73
2021/11/05 05:38:36;;;;;;;2.97;2.77;;;6.20;99.90;;;;;;4954570;28;20212;-73
2021/11/05 05:41:02;;;;;;;2.40;2.20;;;6.30;99.90;;;;;;4955196;28;20470;-72
2021/11/05 05:43:28;;;;;;;2.30;2.10;;;6.30;99.90;;;;;;4954491;29;20427;-72
2021/11/05 05:45:54;;;;;;;2.93;2.47;;;6.30;99.90;;;;;;4943679;28;20413;-72
2021/11/05 05:48:20;;;;;;;3.47;2.37;;;6.30;99.90;;;;;;4934911;29;20419;-72
2021/11/05 05:50:46;;;;;;;1.80;1.70;;;6.30;99.90;;;;;;4935166;29;20201;-72
2021/11/05 05:53:12;;;;;;;1.67;1.57;;;6.30;99.90;;;;;;4934794;29;20842;-72
2021/11/05 05:55:39;;;;;;;2.20;2.10;;;6.30;99.90;;;;;;4935128;29;20189;-72
2021/11/05 05:58:06;;;;;;;1.90;1.80;;;6.30;99.90;;;;;;4933680;29;20678;-74
2021/11/05 06:00:32;;;;;;;2.17;2.07;;;6.30;99.90;;;;;;4934519;29;21040;-73
2021/11/05 06:02:58;;;;;;;1.93;1.83;;;6.30;99.90;;;;;;4934423;29;20413;-74
2021/11/05 06:05:24;;;;;;;2.47;2.23;;;6.30;99.90;;;;;;4934875;29;20399;-74
2021/11/05 06:07:49;;;;;;;3.43;1.77;;;6.30;99.90;;;;;;4935106;29;20722;-73
2021/11/05 06:10:15;;;;;;;1.90;1.80;;;6.30;99.90;;;;;;4934999;29;20178;-74
2021/11/05 06:12:41;;;;;;;1.40;1.30;;;6.30;99.90;;;;;;4934650;29;20200;-73
2021/11/05 06:15:07;;;;;;;2.43;2.23;;;6.30;99.90;;;;;;4935016;29;20236;-74
2021/11/05 06:17:33;;;;;;;1.53;1.43;;;6.30;99.90;;;;;;4934599;29;20508;-72
2021/11/05 06:19:59;;;;;;;1.87;1.77;;;6.30;99.90;;;;;;4933494;29;20519;-72
2021/11/05 06:22:25;;;;;;;1.20;1.10;;;6.40;99.90;;;;;;4934178;29;20965;-71
2021/11/05 06:24:51;;;;;;;1.97;1.77;;;6.40;99.90;;;;;;4934834;29;20173;-72
2021/11/05 06:27:16;;;;;;;1.30;1.20;;;6.40;99.90;;;;;;4934369;29;20409;-71
2021/11/05 06:29:42;;;;;;;1.40;1.00;;;6.40;99.90;;;;;;4934690;29;20220;-72
2021/11/05 06:32:08;;;;;;;1.40;1.30;;;6.40;99.90;;;;;;4933755;29;20212;-71
2021/11/05 06:34:35;;;;;;;1.40;1.30;;;6.50;99.90;;;;;;4934547;29;20428;-72
2021/11/05 06:37:00;;;;;;;1.70;1.60;;;6.50;99.90;;;;;;4934435;29;20405;-72
2021/11/05 06:39:26;;;;;;;1.70;1.60;;;6.50;99.90;;;;;;4934389;29;20945;-71
2021/11/05 06:41:52;;;;;;;2.77;2.00;;;6.50;99.90;;;;;;4934164;29;20476;-71
2021/11/05 06:44:17;;;;;;;1.50;1.40;;;6.60;99.90;;;;;;4933947;29;20181;-71
2021/11/05 06:46:43;;;;;;;1.77;1.67;;;6.50;99.90;;;;;;4934407;29;20197;-71
2021/11/05 06:49:08;;;;;;;1.63;1.53;;;6.60;99.90;;;;;;4934182;29;20239;-71
2021/11/05 06:51:34;;;;;;;1.70;1.60;;;6.60;99.90;;;;;;4934267;29;20205;-71
2021/11/05 06:54:00;;;;;;;1.63;1.53;;;6.60;99.90;;;;;;4933997;29;20175;-71
2021/11/05 06:56:26;;;;;;;3.50;1.43;;;6.60;99.90;;;;;;4934175;29;20177;-72
2021/11/05 06:58:52;;;;;;;1.87;1.77;;;6.60;99.90;;;;;;4934097;29;20431;-73
2021/11/05 07:01:18;;;;;;;2.00;1.23;;;6.70;99.90;;;;;;4934069;29;20205;-76
2021/11/05 07:03:43;;;;;;;1.37;1.27;;;6.60;99.90;;;;;;4933944;29;20427;-70
2021/11/05 07:06:10;;;;;;;1.53;1.43;;;6.60;99.90;;;;;;4934192;29;20528;-72
2021/11/05 07:08:35;;;;;;;2.33;1.57;;;6.60;99.90;;;;;;4934048;29;20742;-71
2021/11/05 07:11:01;;;;;;;1.60;1.50;;;6.70;99.90;;;;;;4934117;29;20448;-72
2021/11/05 07:13:27;;;;;;;1.30;1.20;;;6.70;99.90;;;;;;4933683;29;20213;-71
2021/11/05 07:15:54;;;;;;;1.63;1.53;;;6.70;99.90;;;;;;4934189;29;20961;-71
2021/11/05 07:18:20;;;;;;;1.20;1.10;;;6.80;99.90;;;;;;4933782;29;20474;-71
2021/11/05 07:20:45;;;;;;;1.43;1.33;;;6.80;99.90;;;;;;4933998;29;20982;-72
2021/11/05 07:23:12;;;;;;;1.63;1.53;;;6.80;99.90;;;;;;4933650;29;20406;-71
2021/11/05 07:25:39;;;;;;;1.50;1.40;;;6.80;99.90;;;;;;4934278;29;20515;-72
2021/11/05 07:28:04;;;;;;;1.60;1.33;;;6.80;99.90;;;;;;4933985;29;20496;-71
2021/11/05 07:30:31;;;;;;;1.60;1.50;;;6.90;99.90;;;;;;4933789;29;20479;-72
2021/11/05 07:32:56;;;;;;;2.00;1.63;;;6.90;99.90;;;;;;4933414;29;20198;-72
2021/11/05 07:35:22;;;;;;;2.53;1.67;;;6.90;99.90;;;;;;4933733;29;20429;-71
2021/11/05 07:37:48;;;;;;;1.80;1.70;;;7.00;99.90;;;;;;4933992;29;20937;-73
2021/11/05 07:40:15;;;;;;;1.70;1.60;;;7.00;99.90;;;;;;4934821;29;20209;-72
2021/11/05 07:42:42;;;;;;;1.60;1.50;;;7.00;99.90;;;;;;4933528;29;20193;-72
2021/11/05 07:45:10;;;;;;;2.27;1.50;;;7.00;99.90;;;;;;4932976;29;20418;-72
2021/11/05 07:47:36;;;;;;;1.93;1.83;;;7.10;99.90;;;;;;4934669;29;20916;-72
2021/11/05 07:50:05;;;;;;;1.40;1.20;;;7.10;99.90;;;;;;4937376;29;20476;-72
2021/11/05 07:52:31;;;;;;;1.90;1.80;;;7.00;99.90;;;;;;4936907;29;20466;-73
2021/11/05 07:54:57;;;;;;;2.40;2.20;;;7.10;99.90;;;;;;4937423;29;20424;-72
2021/11/05 07:57:23;;;;;;;2.27;2.07;;;7.10;99.90;;;;;;4937037;29;20423;-71
2021/11/05 07:59:49;;;;;;;2.07;1.97;;;7.10;99.90;;;;;;4937247;29;20825;-72
2021/11/05 08:02:14;;;;;;;1.87;1.77;;;7.10;99.90;;;;;;4936662;29;20195;-72
2021/11/05 08:04:40;;;;;;;2.17;2.00;;;7.20;99.90;;;;;;4937173;29;20434;-72
2021/11/05 08:07:06;;;;;;;2.80;2.33;;;7.20;99.90;;;;;;4936883;29;20175;-72
2021/11/05 08:09:31;;;;;;;2.60;2.40;;;7.30;99.90;;;;;;4937058;29;20546;-71
2021/11/05 08:11:58;;;;;;;2.20;2.00;;;7.30;99.90;;;;;;4936959;29;20207;-71
2021/11/05 08:14:23;;;;;;;2.70;2.10;;;7.40;99.90;;;;;;4936707;29;20184;-71
2021/11/05 08:16:49;;;;;;;2.60;2.40;;;7.40;99.90;;;;;;4936900;29;20407;-71
2021/11/05 08:19:15;;;;;;;5.37;2.00;;;7.50;99.90;;;;;;4936765;29;20533;-71
2021/11/05 08:21:41;;;;;;;2.20;2.10;;;7.60;99.90;;;;;;4936697;29;20240;-73
2021/11/05 08:24:07;;;;;;;2.37;2.17;;;7.60;99.90;;;;;;4936592;29;20177;-71
2021/11/05 08:26:33;;;;;;;2.30;2.20;;;7.70;99.90;;;;;;4936855;29;20218;-71
2021/11/05 08:29:00;;;;;;;2.27;2.13;;;7.70;99.90;;;;;;4936644;29;20445;-72
2021/11/05 08:31:26;;;;;;;2.50;2.40;;;7.70;99.90;;;;;;4936323;28;20542;-73
2021/11/05 08:33:53;;;;;;;5.90;2.77;;;7.80;99.90;;;;;;4936349;29;20505;-73
2021/11/05 08:36:24;;;;;;;2.57;2.37;;;7.80;99.90;;;;;;4936540;29;20418;-71
2021/11/05 08:38:50;;;;;;;3.20;2.60;;;7.80;99.90;;;;;;4936510;29;20796;-71
2021/11/05 08:41:17;;;;;;;2.40;2.30;;;7.90;99.90;;;;;;4936366;29;20459;-73
2021/11/05 08:43:47;;;;;;;2.10;2.00;;;7.90;99.90;;;;;;4953668;28;20682;-71
2021/11/05 08:46:17;;;;;;;3.20;3.00;;;8.00;99.90;;;;;;4951648;28;20514;-71
2021/11/05 08:48:51;;;;;;;4.73;3.13;;;8.10;99.90;;;;;;4954995;29;20938;-71
2021/11/05 08:51:17;;;;;;;4.63;2.70;;;8.20;99.90;;;;;;4956187;28;20476;-71
2021/11/05 08:53:42;;;;;;;9.30;2.77;;;8.20;99.90;;;;;;4954858;28;20428;-73
2021/11/05 08:56:08;;;;;;;2.80;2.60;;;8.30;99.90;;;;;;4955016;28;20970;-71
2021/11/05 08:58:35;;;;;;;5.80;3.27;;;8.40;99.90;;;;;;4954644;28;20183;-71
2021/11/05 09:01:01;;;;;;;2.40;2.30;;;8.50;99.90;;;;;;4954676;28;20212;-72
2021/11/05 09:03:27;;;;;;;2.57;2.40;;;8.50;99.90;;;;;;4955551;28;20482;-72
2021/11/05 09:05:53;;;;;;;2.87;2.67;;;8.60;99.90;;;;;;4955453;28;20501;-71
2021/11/05 09:08:19;;;;;;;2.80;2.60;;;8.60;99.90;;;;;;4953552;28;20187;-72
2021/11/05 09:10:44;;;;;;;3.43;2.40;;;8.60;99.90;;;;;;4955775;28;20431;-72
2021/11/05 09:13:10;;;;;;;2.70;2.50;;;8.60;99.90;;;;;;4954687;28;20271;-72
2021/11/05 09:15:36;;;;;;;1.80;1.70;;;8.70;99.90;;;;;;4950041;28;20196;-72
2021/11/05 09:18:07;;;;;;;2.80;2.50;;;8.70;99.90;;;;;;4953413;28;20204;-71
2021/11/05 09:20:33;;;;;;;3.00;2.70;;;8.90;99.90;;;;;;4950407;29;20479;-72
2021/11/05 09:23:00;;;;;;;3.30;2.43;;;9.10;99.90;;;;;;4954438;28;20442;-72
2021/11/05 09:25:26;;;;;;;2.13;2.03;;;9.20;99.90;;;;;;4951183;28;20541;-71
2021/11/05 09:27:51;;;;;;;2.40;1.80;;;9.40;99.90;;;;;;4955107;28;20244;-72
2021/11/05 09:30:19;;;;;;;2.80;2.33;;;9.50;99.90;;;;;;4949841;28;20230;-72
2021/11/05 09:32:46;;;;;;;3.07;2.43;;;9.60;99.90;;;;;;4951780;29;20272;-72
2021/11/05 09:35:12;;;;;;;2.57;2.37;;;9.60;99.90;;;;;;4954514;29;20417;-71
2021/11/05 09:37:39;;;;;;;2.43;1.87;;;9.60;99.90;;;;;;4954681;29;20459;-71
2021/11/05 09:40:07;;;;;;;2.23;2.10;;;9.50;99.90;;;;;;4954538;29;20715;-70
2021/11/05 09:42:34;;;;;;;2.07;1.90;;;9.40;99.90;;;;;;4954190;28;20530;-70
2021/11/05 09:44:59;;;;;;;2.20;2.03;;;9.40;99.90;;;;;;4954830;29;20416;-72
2021/11/05 09:47:27;;;;;;;2.30;2.10;;;9.40;99.90;;;;;;4953479;29;20450;-72
2021/11/05 09:49:53;;;;;;;2.60;2.40;;;9.40;99.90;;;;;;4954782;29;20203;-71
2021/11/05 09:52:19;;;;;;;2.80;2.50;;;9.40;99.90;;;;;;4951674;28;20513;-71
2021/11/05 09:54:48;;;;;;;3.23;2.57;;;9.40;99.90;;;;;;4954144;28;20178;-71
2021/11/05 09:57:14;;;;;;;3.60;2.73;;;9.50;99.90;;;;;;4953267;28;21045;-71
2021/11/05 09:59:39;;;;;;;3.07;2.87;;;9.60;99.90;;;;;;4950231;28;20435;-70
2021/11/05 10:02:05;;;;;;;3.27;2.97;;;9.60;99.90;;;;;;4952237;28;20215;-70
2021/11/05 10:04:31;;;;;;;3.20;2.90;;;9.60;99.90;;;;;;4953409;28;20198;-71
2021/11/05 10:07:09;;;;;;;5.20;3.10;;;9.70;99.90;;;;;;4952455;28;20241;-71
2021/11/05 10:09:40;;;;;;;3.47;3.27;;;9.60;99.90;;;;;;4965146;28;20806;-71
2021/11/05 10:12:09;;;;;;;3.57;3.30;;;9.60;99.90;;;;;;4953403;28;20539;-69
2021/11/05 10:14:35;;;;;;;5.90;3.40;;;9.60;99.90;;;;;;4956369;28;20423;-71
2021/11/05 10:17:03;;;;;;;4.57;3.10;;;9.80;99.90;;;;;;4973051;28;20376;-71
2021/11/05 10:19:52;;;;;;;4.10;3.80;;;10.00;99.90;;;;;;4953864;28;20182;-71
2021/11/05 10:22:53;;;;;;;2.90;2.70;;;10.10;99.90;;;;;;4953227;28;20442;-71
2021/11/05 10:25:39;;;;;;;3.57;3.27;;;10.40;99.90;;;;;;4953856;28;20498;-70
2021/11/05 10:28:34;;;;;;;3.97;3.57;;;10.60;99.90;;;;;;4953111;28;20412;-70
2021/11/05 10:31:09;;;;;;;5.70;3.93;;;10.70;99.90;;;;;;4953512;28;20923;-71
2021/11/05 10:33:44;;;;;;;4.60;3.40;;;10.40;99.90;;;;;;4953389;28;20508;-72
2021/11/05 10:36:13;;;;;;;4.57;3.63;;;10.30;99.90;;;;;;4953553;29;20570;-71
2021/11/05 10:38:44;;;;;;;3.97;3.63;;;10.20;99.90;;;;;;4952203;29;20801;-71
2021/11/05 10:41:11;;;;;;;5.30;4.77;;;10.20;99.90;;;;;;4953304;28;20971;-72
2021/11/05 10:43:42;;;;;;;3.80;3.40;;;10.20;99.90;;;;;;4953185;28;20423;-71
2021/11/05 10:46:23;;;;;;;4.77;4.37;;;10.20;99.90;;;;;;4952636;28;20423;-71
2021/11/05 10:48:49;;;;;;;4.60;4.20;;;10.20;99.90;;;;;;4953257;28;20417;-71
2021/11/05 10:51:14;;;;;;;5.47;4.73;;;10.10;99.90;;;;;;4952975;28;20500;-71
2021/11/05 10:53:42;;;;;;;6.33;5.63;;;9.90;99.90;;;;;;4953285;28;20815;-71
2021/11/05 10:56:20;;;;;;;6.60;5.13;;;9.80;99.90;;;;;;4947060;29;20184;-72
2021/11/05 10:58:57;;;;;;;9.03;5.40;;;9.80;99.90;;;;;;4945566;28;20815;-72
2021/11/05 11:01:25;;;;;;;7.97;5.90;;;9.70;99.90;;;;;;4953630;28;20587;-68
2021/11/05 11:04:02;;;;;;;5.57;5.13;;;9.70;99.90;;;;;;4935270;28;20418;-71
2021/11/05 11:06:48;;;;;;;6.10;5.40;;;9.70;99.90;;;;;;4934147;29;20493;-72
2021/11/05 11:09:21;;;;;;;6.70;5.60;;;9.80;99.90;;;;;;4933764;29;20500;-72
2021/11/05 11:11:54;;;;;;;5.30;4.80;;;9.90;99.90;;;;;;4934143;29;20446;-71
2021/11/05 11:14:22;;;;;;;4.80;4.40;;;9.90;99.90;;;;;;4933773;29;20428;-71
2021/11/05 11:16:56;;;;;;;5.27;4.67;;;10.00;99.90;;;;;;4942014;28;20490;-71
2021/11/05 11:19:23;;;;;;;5.67;5.17;;;9.90;99.90;;;;;;4952916;29;20427;-70
2021/11/05 11:21:57;;;;;;;6.40;5.13;;;10.00;99.90;;;;;;4951377;28;20475;-71
2021/11/05 11:24:26;;;;;;;6.07;5.20;;;10.10;99.90;;;;;;4937490;29;20429;-71
2021/11/05 11:26:52;;;;;;;6.10;5.60;;;10.10;99.90;;;;;;4937686;29;20471;-71
2021/11/05 11:29:22;;;;;;;5.20;4.80;;;10.20;99.90;;;;;;4939247;29;20445;-70
2021/11/05 11:31:48;;;;;;;5.70;5.10;;;10.30;99.90;;;;;;4956555;28;20850;-70
2021/11/05 11:34:15;;;;;;;5.90;5.20;;;10.30;99.90;;;;;;4956390;29;20472;-71
2021/11/05 11:36:49;;;;;;;5.40;4.80;;;10.30;99.90;;;;;;4956886;28;20418;-71
2021/11/05 11:39:18;;;;;;;7.87;7.03;;;10.30;99.90;;;;;;4956624;29;20433;-72
2021/11/05 11:41:45;;;;;;;3.93;3.60;;;10.20;99.90;;;;;;4939269;28;20923;-71
2021/11/05 11:44:15;;;;;;;6.63;5.10;;;10.20;99.90;;;;;;4937222;29;20523;-72
2021/11/05 11:47:12;;;;;;;5.20;4.63;;;10.20;99.90;;;;;;4946167;28;20422;-71
2021/11/05 11:49:38;;;;;;;3.80;3.50;;;10.20;99.90;;;;;;4953730;28;21823;-71
2021/11/05 11:52:28;;;;;;;8.37;5.87;;;10.30;99.90;;;;;;4938243;29;20446;-70
2021/11/05 11:54:58;;;;;;;6.03;5.37;;;10.40;99.90;;;;;;4956491;28;20615;-71
2021/11/05 11:57:27;;;;;;;5.23;4.73;;;10.50;99.90;;;;;;4958034;28;20431;-71
2021/11/05 12:00:05;;;;;;;5.57;4.30;;;10.60;99.90;;;;;;4956178;28;20434;-71
2021/11/05 12:02:36;;;;;;;5.67;5.03;;;10.60;99.90;;;;;;4955827;28;20843;-71
2021/11/05 12:05:25;;;;;;;5.50;5.00;;;10.60;99.90;;;;;;4957482;28;20917;-71
2021/11/05 12:08:22;;;;;;;5.30;4.80;;;10.70;99.90;;;;;;4950327;28;20446;-70
2021/11/05 12:10:56;;;;;;;5.80;5.20;;;10.70;99.90;;;;;;4957020;28;20507;-71
2021/11/05 12:13:55;;;;;;;6.27;5.67;;;10.70;99.90;;;;;;4956274;28;21128;-70
2021/11/05 12:16:29;;;;;;;6.40;5.37;;;10.60;99.90;;;;;;4950382;29;20427;-71
2021/11/05 12:19:03;;;;;;;7.50;6.67;;;10.50;99.90;;;;;;4956521;28;20522;-71
2021/11/05 12:21:34;;;;;;;6.30;5.70;;;10.30;99.90;;;;;;4955865;28;20476;-71
2021/11/05 12:24:20;;;;;;;6.30;5.70;;;10.40;99.90;;;;;;4957265;28;20428;-69
2021/11/05 12:27:08;;;;;;;6.93;6.23;;;10.30;99.90;;;;;;4955819;28;20429;-71
2021/11/05 12:29:34;;;;;;;8.63;7.37;;;10.30;99.90;;;;;;4946649;28;20426;-72
2021/11/05 12:32:01;;;;;;;8.03;7.23;;;10.40;99.90;;;;;;4955562;28;20474;-68
2021/11/05 12:34:37;;;;;;;10.40;6.77;;;10.30;99.90;;;;;;4955246;28;20181;-72
2021/11/05 12:37:05;;;;;;;7.43;6.27;;;10.40;99.90;;;;;;4955868;28;21942;-71
2021/11/05 12:39:37;;;;;;;7.13;5.90;;;10.40;99.90;;;;;;4957358;28;20440;-70
2021/11/05 12:42:09;;;;;;;7.87;7.07;;;10.50;99.90;;;;;;4955347;28;20600;-71
2021/11/05 12:45:00;;;;;;;7.00;6.27;;;10.60;99.90;;;;;;4955497;28;20422;-71
2021/11/05 12:47:44;;;;;;;8.23;6.60;;;10.80;99.90;;;;;;4953231;28;20582;-71
2021/11/05 12:50:14;;;;;;;7.20;5.80;;;10.90;99.90;;;;;;4954119;28;20516;-69
2021/11/05 12:52:40;;;;;;;7.57;6.70;;;10.90;99.90;;;;;;4951359;28;20458;-71
2021/11/05 12:55:07;;;;;;;6.20;5.60;;;10.90;99.90;;;;;;4949478;29;20430;-71
2021/11/05 12:57:32;;;;;;;8.60;7.70;;;11.00;99.90;;;;;;4945023;28;20677;-72
2021/11/05 12:59:58;;;;;;;6.77;6.10;;;10.90;99.90;;;;;;4946957;29;20565;-70
2021/11/05 13:02:25;;;;;;;7.23;6.53;;;10.90;99.90;;;;;;4949196;28;20210;-71
2021/11/05 13:04:52;;;;;;;8.83;6.10;;;10.70;99.90;;;;;;4947441;28;20703;-70
2021/11/05 13:07:18;;;;;;;5.70;5.20;;;10.70;99.90;;;;;;4953142;28;20487;-70
2021/11/05 13:09:45;;;;;;;7.17;6.47;;;10.60;99.90;;;;;;4954282;28;20455;-71
2021/11/05 13:12:21;;;;;;;8.67;7.40;;;10.70;99.90;;;;;;4953846;28;20490;-70
2021/11/05 13:14:51;;;;;;;8.50;7.37;;;10.70;99.90;;;;;;4950406;28;20448;-71
2021/11/05 13:17:31;;;;;;;9.07;8.10;;;10.70;99.90;;;;;;4942812;28;20474;-70
2021/11/05 13:20:09;;;;;;;8.30;7.00;;;10.70;99.90;;;;;;4954399;28;20510;-71
2021/11/05 13:22:37;;;;;;;8.10;7.00;;;10.60;99.90;;;;;;4953968;28;20830;-71
2021/11/05 13:25:35;;;;;;;9.57;8.47;;;10.60;99.90;;;;;;4950474;28;20452;-71
2021/11/05 13:28:05;;;;;;;9.90;8.00;;;10.60;99.90;;;;;;4956425;28;20484;-70
2021/11/05 13:30:33;;;;;;;12.60;9.27;;;10.60;99.90;;;;;;4954408;28;20498;-70
2021/11/05 13:32:59;;;;;;;8.87;7.50;;;10.50;99.90;;;;;;4953767;28;20471;-71
2021/11/05 13:35:25;;;;;;;9.97;8.60;;;10.50;99.90;;;;;;4953912;28;20451;-71
2021/11/05 13:38:03;;;;;;;10.37;8.00;;;10.50;99.90;;;;;;4939481;28;20482;-71
2021/11/05 13:40:29;;;;;;;11.50;9.00;;;10.50;99.90;;;;;;4945613;28;20486;-71
2021/11/05 13:42:54;;;;;;;10.80;8.17;;;10.50;99.90;;;;;;4941286;28;20531;-71
2021/11/05 13:45:20;;;;;;;11.47;9.67;;;10.60;99.90;;;;;;4945243;28;20460;-70
2021/11/05 13:47:48;;;;;;;8.90;7.97;;;10.70;99.90;;;;;;4945114;28;20234;-70
2021/11/05 13:50:18;;;;;;;12.23;8.90;;;10.60;99.90;;;;;;4945871;28;20219;-71
2021/11/05 13:52:55;;;;;;;8.20;7.40;;;10.60;99.90;;;;;;4943727;28;20473;-70
2021/11/05 13:55:40;;;;;;;9.43;7.63;;;10.60;99.90;;;;;;4943699;28;20465;-71
2021/11/05 13:58:10;;;;;;;8.20;7.37;;;10.50;99.90;;;;;;4942193;28;20470;-71
2021/11/05 14:00:41;;;;;;;9.87;8.00;;;10.50;99.90;;;;;;4950751;28;20482;-71
2021/11/05 14:03:07;;;;;;;9.50;8.37;;;10.40;99.90;;;;;;4953113;28;20481;-71
2021/11/05 14:05:33;;;;;;;15.33;10.60;;;10.40;99.90;;;;;;4953813;28;20461;-71
2021/11/05 14:08:11;;;;;;;10.17;7.70;;;10.20;99.90;;;;;;4953365;28;20545;-71
2021/11/05 14:10:47;;;;;;;11.10;9.50;;;10.10;99.90;;;;;;4946129;28;20217;-71
2021/11/05 14:13:13;;;;;;;10.57;9.20;;;10.10;99.90;;;;;;4950188;28;20570;-70
2021/11/05 14:15:38;;;;;;;9.20;8.30;;;10.00;99.90;;;;;;4953512;28;20898;-70
2021/11/05 14:18:15;;;;;;;10.30;8.20;;;10.00;99.90;;;;;;4953232;28;20229;-71
2021/11/05 14:20:41;;;;;;;8.97;8.00;;;9.90;99.90;;;;;;4952079;28;20225;-71
2021/11/05 14:23:26;;;;;;;10.03;8.47;;;9.80;99.90;;;;;;4941139;28;20477;-70
2021/11/05 14:25:52;;;;;;;12.43;9.73;;;9.70;99.90;;;;;;4953017;28;20555;-71
2021/11/05 14:28:18;;;;;;;10.70;8.57;;;9.70;99.90;;;;;;4964399;28;20479;-71
2021/11/05 14:30:43;;;;;;;11.77;10.07;;;9.70;99.90;;;;;;4953081;28;20455;-71
2021/11/05 14:33:13;;;;;;;22.43;9.67;;;9.70;99.90;;;;;;4940967;28;20593;-71
2021/11/05 14:35:41;;;;;;;14.10;10.67;;;9.70;99.90;;;;;;4941493;28;20678;-71
2021/11/05 14:38:10;;;;;;;11.17;9.30;;;9.70;99.90;;;;;;4952946;28;20467;-70
2021/11/05 14:40:39;;;;;;;15.03;11.20;;;9.60;99.90;;;;;;4952976;28;20485;-71
2021/11/05 14:43:16;;;;;;;13.63;10.70;;;9.60;99.90;;;;;;4952662;28;20526;-72
2021/11/05 14:45:57;;;;;;;18.20;10.03;;;9.60;99.90;;;;;;4952926;28;20450;-71
2021/11/05 14:48:25;;;;;;;14.90;11.20;;;9.50;99.90;;;;;;4952771;28;20464;-71
2021/11/05 14:51:09;;;;;;;16.87;12.33;;;9.40;99.90;;;;;;4952677;28;20500;-72
2021/11/05 14:53:40;;;;;;;17.60;12.17;;;9.40;99.90;;;;;;4952622;28;20444;-71
2021/11/05 14:56:16;;;;;;;13.30;10.60;;;9.30;99.90;;;;;;4947732;28;20994;-72
2021/11/05 14:58:44;;;;;;;17.50;11.43;;;9.20;99.90;;;;;;4952223;28;20496;-71
2021/11/05 15:01:18;;;;;;;15.63;11.30;;;9.20;99.90;;;;;;4952580;28;20475;-70
2021/11/05 15:03:43;;;;;;;13.77;11.90;;;9.10;99.90;;;;;;4952483;28;20431;-71
2021/11/05 15:06:11;;;;;;;14.23;10.80;;;9.10;99.90;;;;;;4952861;28;20438;-72
2021/11/05 15:08:38;;;;;;;13.30;11.03;;;9.10;99.90;;;;;;4952923;28;20226;-72
2021/11/05 15:11:06;;;;;;;14.30;11.00;;;9.10;99.90;;;;;;4952873;28;20828;-71
2021/11/05 15:13:33;;;;;;;12.13;10.50;;;9.00;99.90;;;;;;4952643;28;20462;-71
2021/11/05 15:16:00;;;;;;;14.60;11.47;;;9.00;99.90;;;;;;4952976;28;20450;-72
2021/11/05 15:18:26;;;;;;;12.70;11.13;;;8.90;99.90;;;;;;4952589;28;20482;-71
2021/11/05 15:20:52;;;;;;;15.33;12.07;;;9.00;99.90;;;;;;4952884;28;20482;-71
2021/11/05 15:23:20;;;;;;;11.70;10.50;;;9.00;99.90;;;;;;4952226;28;20231;-72
2021/11/05 15:25:46;;;;;;;16.77;12.33;;;8.90;99.90;;;;;;4952941;28;20505;-70
2021/11/05 15:28:13;;;;;;;16.73;12.00;;;8.90;99.90;;;;;;4951989;28;20411;-72
2021/11/05 15:30:41;;;;;;;13.93;11.13;;;8.90;99.90;;;;;;4952467;28;20418;-71
2021/11/05 15:33:10;;;;;;;18.00;12.73;;;8.80;99.90;;;;;;4952704;28;20445;-72
2021/11/05 15:35:38;;;;;;;16.90;11.87;;;8.80;99.90;;;;;;4953174;28;20457;-71
2021/11/05 15:38:06;;;;;;;18.50;12.30;;;8.80;99.90;;;;;;4952845;28;20433;-71
2021/11/05 15:40:32;;;;;;;17.90;12.67;;;8.80;99.90;;;;;;4953065;28;20473;-71
2021/11/05 15:42:58;;;;;;;18.60;12.70;;;8.80;99.90;;;;;;4967537;28;20407;-71
2021/11/05 15:45:25;;;;;;;27.83;20.63;;;8.70;99.90;;;;;;4953013;28;20409;-72
2021/11/05 15:47:54;;;;;;;20.00;14.33;;;8.70;99.90;;;;;;4952872;28;20428;-71
2021/11/05 15:50:21;;;;;;;17.23;13.37;;;8.60;99.90;;;;;;4952943;28;20506;-73
2021/11/05 15:52:48;;;;;;;18.93;12.23;;;8.60;99.90;;;;;;4952455;28;20506;-71
2021/11/05 15:55:14;;;;;;;18.63;13.80;;;8.50;99.90;;;;;;4952783;28;21005;-72
2021/11/05 15:57:41;;;;;;;17.70;12.03;;;8.50;99.90;;;;;;4952934;28;20432;-72
2021/11/05 16:00:10;;;;;;;17.50;13.83;;;8.50;99.90;;;;;;4952513;28;20429;-71
2021/11/05 16:02:36;;;;;;;16.17;12.10;;;8.40;99.90;;;;;;4947186;28;20492;-70
2021/11/05 16:05:02;;;;;;;19.17;12.27;;;8.40;99.90;;;;;;4944232;28;20822;-71
2021/11/05 16:07:31;;;;;;;15.70;12.60;;;8.40;99.90;;;;;;4942325;28;20243;-71
2021/11/05 16:09:56;;;;;;;15.93;12.60;;;8.40;99.90;;;;;;4947162;28;20236;-69
2021/11/05 16:12:22;;;;;;;21.43;12.73;;;8.30;99.90;;;;;;4945959;29;20483;-72
2021/11/05 16:14:47;;;;;;;16.87;12.73;;;8.30;99.90;;;;;;4946765;29;20184;-72
2021/11/05 16:17:13;;;;;;;15.50;13.43;;;8.30;99.90;;;;;;4944566;28;20191;-72
2021/11/05 16:19:39;;;;;;;20.03;14.07;;;8.30;99.90;;;;;;4945052;28;20546;-72
2021/11/05 16:22:05;;;;;;;20.37;13.33;;;8.30;99.90;;;;;;4946236;28;20333;-72
2021/11/05 16:24:33;;;;;;;16.47;13.50;;;8.20;99.90;;;;;;4946342;29;20491;-72
2021/11/05 16:26:58;;;;;;;18.20;14.30;;;8.20;99.90;;;;;;4945022;28;20420;-72
2021/11/05 16:29:24;;;;;;;14.33;12.40;;;8.20;99.90;;;;;;4946055;28;20417;-72
2021/11/05 16:31:50;;;;;;;18.80;13.43;;;8.10;99.90;;;;;;4946188;29;20218;-72
2021/11/05 16:34:16;;;;;;;26.57;13.17;;;8.10;99.90;;;;;;4944284;28;20222;-72
2021/11/05 16:36:42;;;;;;;23.13;15.50;;;8.10;99.90;;;;;;4946632;28;20443;-73
2021/11/05 16:39:08;;;;;;;21.23;14.13;;;8.10;99.90;;;;;;4945633;29;20831;-73
2021/11/05 16:41:34;;;;;;;20.83;15.43;;;8.10;99.90;;;;;;4944935;28;20469;-73
2021/11/05 16:44:00;;;;;;;21.87;16.20;;;8.10;99.90;;;;;;4946818;29;20423;-72
2021/11/05 16:46:26;;;;;;;20.17;15.03;;;8.00;99.90;;;;;;4945505;29;20223;-73
2021/11/05 16:48:54;;;;;;;20.97;16.27;;;8.00;99.90;;;;;;4945295;28;20179;-73
2021/11/05 16:51:22;;;;;;;20.07;15.03;;;8.00;99.90;;;;;;4945138;29;20824;-73
2021/11/05 16:53:48;;;;;;;17.97;13.83;;;8.00;99.90;;;;;;4941270;29;20491;-74
2021/11/05 16:56:15;;;;;;;20.87;14.57;;;8.00;99.90;;;;;;4936374;29;20506;-73
2021/11/05 16:58:42;;;;;;;19.27;14.70;;;7.90;99.90;;;;;;4936334;29;20427;-73
2021/11/05 17:01:08;;;;;;;18.80;14.73;;;7.90;99.90;;;;;;4936016;29;20457;-73
2021/11/05 17:03:34;;;;;;;19.40;13.40;;;7.90;99.90;;;;;;4935891;29;20423;-72
2021/11/05 17:06:00;;;;;;;17.00;12.60;;;7.90;99.90;;;;;;4936222;29;20789;-72
2021/11/05 17:08:26;;;;;;;38.80;24.10;;;7.80;99.90;;;;;;4936085;29;20419;-73
2021/11/05 17:10:51;;;;;;;23.10;16.63;;;7.70;99.90;;;;;;4936350;29;20439;-72
2021/11/05 17:13:17;;;;;;;18.70;14.00;;;7.70;99.90;;;;;;4935734;29;20179;-73
2021/11/05 17:15:43;;;;;;;17.90;13.00;;;7.60;99.90;;;;;;4936037;29;20183;-72
2021/11/05 17:18:10;;;;;;;15.43;12.20;;;7.60;99.90;;;;;;4935778;29;20861;-73
2021/11/05 17:20:36;;;;;;;18.70;12.93;;;7.60;99.90;;;;;;4937305;29;20221;-71
2021/11/05 17:23:02;;;;;;;18.87;14.20;;;7.50;99.90;;;;;;4944946;29;20427;-73
2021/11/05 17:25:27;;;;;;;20.83;14.30;;;7.50;99.90;;;;;;4946587;28;20445;-73